sensor_id;sensor_type;location;lat;lon;timestamp;pressure;altitude;pressure_sealevel;temperature;humidity
7730;BME280;3908;52.310;7.230;2024-03-06T00:01:11;51657.59;;;-145.83;99.60
7730;BME280;3908;52.310;7.230;2024-03-06T00:03:58;51661.53;;;-145.83;99.81
7730;BME280;3908;52.310;7.230;2024-03-06T00:06:45;51688.91;;;-145.83;98.94
7730;BME280;3908;52.310;7.230;2024-03-06T00:09:34;51640.00;;;-145.83;99.18
7730;BME280;3908;52.310;7.230;2024-03-06T00:12:22;51638.03;;;-145.83;99.49
7730;BME280;3908;52.310;7.230;2024-03-06T00:15:09;51665.44;;;-145.83;99.33
7730;BME280;3908;52.310;7.230;2024-03-06T00:17:56;51700.66;;;-145.83;98.58
7730;BME280;3908;52.310;7.230;2024-03-06T00:20:44;51669.34;;;-145.83;97.94
7730;BME280;3908;52.310;7.230;2024-03-06T00:23:31;51675.22;;;-145.83;98.23
7730;BME280;3908;52.310;7.230;2024-03-06T00:26:20;51690.88;;;-145.83;98.25
7730;BME280;3908;52.310;7.230;2024-03-06T00:29:07;51663.47;;;-145.83;98.06
7730;BME280;3908;52.310;7.230;2024-03-06T00:31:55;51685.00;;;-145.83;97.87
7730;BME280;3908;52.310;7.230;2024-03-06T00:34:42;51659.56;;;-145.83;98.23
7730;BME280;3908;52.310;7.230;2024-03-06T00:37:29;51683.03;;;-145.83;97.42
7730;BME280;3908;52.310;7.230;2024-03-06T00:40:16;51685.00;;;-145.83;96.88
7730;BME280;3908;52.310;7.230;2024-03-06T00:43:05;51696.75;;;-145.83;96.66
7730;BME280;3908;52.310;7.230;2024-03-06T00:45:52;51688.91;;;-145.83;96.91
7730;BME280;3908;52.310;7.230;2024-03-06T00:48:39;51706.53;;;-145.83;96.28
7730;BME280;3908;52.310;7.230;2024-03-06T00:51:27;51720.22;;;-145.83;95.88
7730;BME280;3908;52.310;7.230;2024-03-06T00:54:14;51718.25;;;-145.83;96.52
7730;BME280;3908;52.310;7.230;2024-03-06T00:57:01;51692.81;;;-145.83;97.15
7730;BME280;3908;52.310;7.230;2024-03-06T00:59:50;51683.03;;;-145.83;96.60
7730;BME280;3908;52.310;7.230;2024-03-06T01:02:37;51663.47;;;-145.83;97.27
7730;BME280;3908;52.310;7.230;2024-03-06T01:05:24;51673.25;;;-145.83;96.33
7730;BME280;3908;52.310;7.230;2024-03-06T01:08:11;51657.59;;;-145.83;96.54
7730;BME280;3908;52.310;7.230;2024-03-06T01:10:59;51710.44;;;-145.83;96.80
7730;BME280;3908;52.310;7.230;2024-03-06T01:13:46;51704.56;;;-145.83;95.70
7730;BME280;3908;52.310;7.230;2024-03-06T01:16:34;51698.69;;;-145.83;95.61
7730;BME280;3908;52.310;7.230;2024-03-06T01:19:21;51688.91;;;-145.83;96.10
7730;BME280;3908;52.310;7.230;2024-03-06T01:22:08;51683.03;;;-145.83;96.03
7730;BME280;3908;52.310;7.230;2024-03-06T01:24:55;51704.56;;;-145.83;96.24
7730;BME280;3908;52.310;7.230;2024-03-06T01:27:42;51692.81;;;-145.83;95.64
7730;BME280;3908;52.310;7.230;2024-03-06T01:30:30;51679.13;;;-145.83;95.72
7730;BME280;3908;52.310;7.230;2024-03-06T01:33:18;51673.25;;;-145.83;95.64
7730;BME280;3908;52.310;7.230;2024-03-06T01:36:05;51657.59;;;-145.83;95.97
7730;BME280;3908;52.310;7.230;2024-03-06T01:38:52;51667.38;;;-145.83;95.56
7730;BME280;3908;52.310;7.230;2024-03-06T01:41:44;51665.44;;;-145.83;95.78
7730;BME280;3908;52.310;7.230;2024-03-06T01:44:31;51675.22;;;-145.83;96.08
7730;BME280;3908;52.310;7.230;2024-03-06T01:47:18;51686.94;;;-145.83;95.35
7730;BME280;3908;52.310;7.230;2024-03-06T01:50:08;51718.25;;;-145.83;96.05
7730;BME280;3908;52.310;7.230;2024-03-06T01:52:56;51651.75;;;-145.83;96.11
7730;BME280;3908;52.310;7.230;2024-03-06T01:55:43;51663.47;;;-145.83;95.13
7730;BME280;3908;52.310;7.230;2024-03-06T01:58:31;51706.53;;;-145.83;94.79
7730;BME280;3908;52.310;7.230;2024-03-06T02:01:19;51686.94;;;-145.83;94.91
7730;BME280;3908;52.310;7.230;2024-03-06T02:04:08;51657.59;;;-145.83;95.62
7730;BME280;3908;52.310;7.230;2024-03-06T02:06:56;51638.03;;;-145.83;95.56
7730;BME280;3908;52.310;7.230;2024-03-06T02:09:44;51698.69;;;-145.83;96.33
7730;BME280;3908;52.310;7.230;2024-03-06T02:12:31;51661.53;;;-145.83;95.62
7730;BME280;3908;52.310;7.230;2024-03-06T02:15:18;51688.91;;;-145.83;95.90
7730;BME280;3908;52.310;7.230;2024-03-06T02:18:06;51645.88;;;-145.83;95.25
7730;BME280;3908;52.310;7.230;2024-03-06T02:20:55;51718.25;;;-145.83;94.16
7730;BME280;3908;52.310;7.230;2024-03-06T02:23:42;51704.56;;;-145.83;94.74
7730;BME280;3908;52.310;7.230;2024-03-06T02:26:29;51667.38;;;-145.83;94.73
7730;BME280;3908;52.310;7.230;2024-03-06T02:29:17;51669.34;;;-145.83;95.27
7730;BME280;3908;52.310;7.230;2024-03-06T02:32:04;51704.56;;;-145.83;94.82
7730;BME280;3908;52.310;7.230;2024-03-06T02:34:51;51683.03;;;-145.83;94.62
7730;BME280;3908;52.310;7.230;2024-03-06T02:37:41;51698.69;;;-145.83;94.50
7730;BME280;3908;52.310;7.230;2024-03-06T02:40:28;51685.00;;;-145.83;94.93
7730;BME280;3908;52.310;7.230;2024-03-06T02:43:15;51673.25;;;-145.83;94.36
7730;BME280;3908;52.310;7.230;2024-03-06T02:46:02;51700.66;;;-145.83;94.01
7730;BME280;3908;52.310;7.230;2024-03-06T02:48:50;51681.09;;;-145.83;93.73
7730;BME280;3908;52.310;7.230;2024-03-06T02:51:37;51667.38;;;-145.83;94.09
7730;BME280;3908;52.310;7.230;2024-03-06T02:54:25;51673.25;;;-145.83;94.08
7730;BME280;3908;52.310;7.230;2024-03-06T02:57:12;51706.53;;;-145.83;93.84
7730;BME280;3908;52.310;7.230;2024-03-06T02:59:59;51681.09;;;-145.83;94.79
7730;BME280;3908;52.310;7.230;2024-03-06T03:02:46;51681.09;;;-145.83;94.44
7730;BME280;3908;52.310;7.230;2024-03-06T03:05:34;51661.53;;;-145.83;94.53
7730;BME280;3908;52.310;7.230;2024-03-06T03:08:21;51681.09;;;-145.83;94.73
7730;BME280;3908;52.310;7.230;2024-03-06T03:11:09;51641.94;;;-145.83;94.05
7730;BME280;3908;52.310;7.230;2024-03-06T03:13:58;51683.03;;;-145.83;94.61
7730;BME280;3908;52.310;7.230;2024-03-06T03:16:45;51667.38;;;-145.83;94.87
7730;BME280;3908;52.310;7.230;2024-03-06T03:19:32;51651.75;;;-145.83;94.27
7730;BME280;3908;52.310;7.230;2024-03-06T03:22:21;51686.94;;;-145.83;94.99
7730;BME280;3908;52.310;7.230;2024-03-06T03:25:08;51638.03;;;-145.83;95.16
7730;BME280;3908;52.310;7.230;2024-03-06T03:27:58;51696.75;;;-145.83;94.94
7730;BME280;3908;52.310;7.230;2024-03-06T03:30:45;51679.13;;;-145.83;95.18
7730;BME280;3908;52.310;7.230;2024-03-06T03:33:32;51665.44;;;-145.83;94.99
7730;BME280;3908;52.310;7.230;2024-03-06T03:36:19;51685.00;;;-145.83;95.49
7730;BME280;3908;52.310;7.230;2024-03-06T03:39:06;51698.69;;;-145.83;95.07
7730;BME280;3908;52.310;7.230;2024-03-06T03:41:58;51683.03;;;-145.83;94.22
7730;BME280;3908;52.310;7.230;2024-03-06T03:44:47;51698.69;;;-145.83;94.17
7730;BME280;3908;52.310;7.230;2024-03-06T03:47:34;51681.09;;;-145.83;93.68
7730;BME280;3908;52.310;7.230;2024-03-06T03:50:21;51702.59;;;-145.83;94.70
7730;BME280;3908;52.310;7.230;2024-03-06T03:53:08;51694.78;;;-145.83;94.59
7730;BME280;3908;52.310;7.230;2024-03-06T03:55:55;51661.53;;;-145.83;94.06
7730;BME280;3908;52.310;7.230;2024-03-06T03:58:42;51690.88;;;-145.83;93.38
7730;BME280;3908;52.310;7.230;2024-03-06T04:01:31;51663.47;;;-145.83;93.85
7730;BME280;3908;52.310;7.230;2024-03-06T04:04:18;51679.13;;;-145.83;94.07
7730;BME280;3908;52.310;7.230;2024-03-06T04:07:05;51710.44;;;-145.83;94.19
7730;BME280;3908;52.310;7.230;2024-03-06T04:09:52;51704.56;;;-145.83;94.72
7730;BME280;3908;52.310;7.230;2024-03-06T04:12:40;51681.09;;;-145.83;94.86
7730;BME280;3908;52.310;7.230;2024-03-06T04:15:27;51669.34;;;-145.83;94.41
7730;BME280;3908;52.310;7.230;2024-03-06T04:18:15;51698.69;;;-145.83;94.00
7730;BME280;3908;52.310;7.230;2024-03-06T04:21:03;51647.81;;;-145.83;94.08
7730;BME280;3908;52.310;7.230;2024-03-06T04:23:51;51704.56;;;-145.83;94.15
7730;BME280;3908;52.310;7.230;2024-03-06T04:26:38;51686.94;;;-145.83;94.12
7730;BME280;3908;52.310;7.230;2024-03-06T04:29:25;51681.09;;;-145.83;93.55
7730;BME280;3908;52.310;7.230;2024-03-06T04:32:12;51692.81;;;-145.83;94.36
7730;BME280;3908;52.310;7.230;2024-03-06T04:35:01;51694.78;;;-145.83;93.98
7730;BME280;3908;52.310;7.230;2024-03-06T04:37:48;51661.53;;;-145.83;94.16
7730;BME280;3908;52.310;7.230;2024-03-06T04:40:35;51720.22;;;-145.83;94.79
7730;BME280;3908;52.310;7.230;2024-03-06T04:43:22;51634.13;;;-145.83;94.30
7730;BME280;3908;52.310;7.230;2024-03-06T04:46:12;51663.47;;;-145.83;93.96
7730;BME280;3908;52.310;7.230;2024-03-06T04:49:00;51636.09;;;-145.83;93.30
7730;BME280;3908;52.310;7.230;2024-03-06T04:51:48;51636.09;;;-145.83;93.13
7730;BME280;3908;52.310;7.230;2024-03-06T04:54:35;51647.81;;;-145.83;93.01
7730;BME280;3908;52.310;7.230;2024-03-06T04:57:22;51649.78;;;-145.83;93.01
7730;BME280;3908;52.310;7.230;2024-03-06T05:00:11;51665.44;;;-145.83;93.73
7730;BME280;3908;52.310;7.230;2024-03-06T05:02:58;51665.44;;;-145.83;93.31
7730;BME280;3908;52.310;7.230;2024-03-06T05:05:45;51694.78;;;-145.83;93.69
7730;BME280;3908;52.310;7.230;2024-03-06T05:08:34;51663.47;;;-145.83;93.46
7730;BME280;3908;52.310;7.230;2024-03-06T05:11:21;51700.66;;;-145.83;92.93
7730;BME280;3908;52.310;7.230;2024-03-06T05:14:08;51671.31;;;-145.83;93.22
7730;BME280;3908;52.310;7.230;2024-03-06T05:16:55;51669.34;;;-145.83;93.41
7730;BME280;3908;52.310;7.230;2024-03-06T05:19:42;51698.69;;;-145.83;92.88
7730;BME280;3908;52.310;7.230;2024-03-06T05:22:30;51686.94;;;-145.83;93.47
7730;BME280;3908;52.310;7.230;2024-03-06T05:25:18;51640.00;;;-145.83;93.67
7730;BME280;3908;52.310;7.230;2024-03-06T05:28:06;51677.16;;;-145.83;94.13
7730;BME280;3908;52.310;7.230;2024-03-06T05:30:53;51673.25;;;-145.83;93.82
7730;BME280;3908;52.310;7.230;2024-03-06T05:33:40;51686.94;;;-145.83;94.26
7730;BME280;3908;52.310;7.230;2024-03-06T05:36:27;51628.25;;;-145.83;94.16
7730;BME280;3908;52.310;7.230;2024-03-06T05:39:14;51679.13;;;-145.83;93.95
7730;BME280;3908;52.310;7.230;2024-03-06T05:42:05;51659.56;;;-145.83;94.16
7730;BME280;3908;52.310;7.230;2024-03-06T05:44:52;51645.88;;;-145.83;94.82
7730;BME280;3908;52.310;7.230;2024-03-06T05:47:41;51657.59;;;-145.83;95.84
7730;BME280;3908;52.310;7.230;2024-03-06T05:50:28;51636.09;;;-145.83;95.59
7730;BME280;3908;52.310;7.230;2024-03-06T05:53:15;51640.00;;;-145.83;96.02
7730;BME280;3908;52.310;7.230;2024-03-06T05:56:04;51675.22;;;-145.83;95.95
7730;BME280;3908;52.310;7.230;2024-03-06T05:58:53;51661.53;;;-145.83;95.72
7730;BME280;3908;52.310;7.230;2024-03-06T06:01:40;51651.75;;;-145.83;96.30
7730;BME280;3908;52.310;7.230;2024-03-06T06:04:28;51683.03;;;-145.83;96.48
7730;BME280;3908;52.310;7.230;2024-03-06T06:07:17;51673.25;;;-145.83;96.27
7730;BME280;3908;52.310;7.230;2024-03-06T06:10:04;51653.69;;;-145.83;95.82
7730;BME280;3908;52.310;7.230;2024-03-06T06:12:54;51696.75;;;-145.83;96.20
7730;BME280;3908;52.310;7.230;2024-03-06T06:15:42;51665.44;;;-145.83;96.01
7730;BME280;3908;52.310;7.230;2024-03-06T06:18:29;51675.22;;;-145.83;96.12
7730;BME280;3908;52.310;7.230;2024-03-06T06:21:17;51696.75;;;-145.83;95.78
7730;BME280;3908;52.310;7.230;2024-03-06T06:24:05;51675.22;;;-145.83;95.16
7730;BME280;3908;52.310;7.230;2024-03-06T06:26:52;51681.09;;;-145.83;95.21
7730;BME280;3908;52.310;7.230;2024-03-06T06:29:39;51655.66;;;-145.83;96.00
7730;BME280;3908;52.310;7.230;2024-03-06T06:32:28;51649.78;;;-145.83;95.17
7730;BME280;3908;52.310;7.230;2024-03-06T06:35:16;51665.44;;;-145.83;94.49
7730;BME280;3908;52.310;7.230;2024-03-06T06:38:03;51663.47;;;-145.83;94.76
7730;BME280;3908;52.310;7.230;2024-03-06T06:40:51;51641.94;;;-145.83;95.15
7730;BME280;3908;52.310;7.230;2024-03-06T06:43:38;51667.38;;;-145.83;94.58
7730;BME280;3908;52.310;7.230;2024-03-06T06:46:26;51681.09;;;-145.83;94.38
7730;BME280;3908;52.310;7.230;2024-03-06T06:49:14;51655.66;;;-145.83;94.58
7730;BME280;3908;52.310;7.230;2024-03-06T06:52:01;51661.53;;;-145.83;93.68
7730;BME280;3908;52.310;7.230;2024-03-06T06:54:48;51712.38;;;-145.83;94.43
7730;BME280;3908;52.310;7.230;2024-03-06T06:57:37;51679.13;;;-145.83;94.85
7730;BME280;3908;52.310;7.230;2024-03-06T07:00:24;51694.78;;;-145.83;94.72
7730;BME280;3908;52.310;7.230;2024-03-06T07:03:11;51681.09;;;-145.83;94.84
7730;BME280;3908;52.310;7.230;2024-03-06T07:05:59;51675.22;;;-145.83;93.81
7730;BME280;3908;52.310;7.230;2024-03-06T07:08:48;51696.75;;;-145.83;93.76
7730;BME280;3908;52.310;7.230;2024-03-06T07:11:36;51655.66;;;-145.83;93.53
7730;BME280;3908;52.310;7.230;2024-03-06T07:14:23;51683.03;;;-145.83;93.80
7730;BME280;3908;52.310;7.230;2024-03-06T07:17:10;51698.69;;;-145.83;93.41
7730;BME280;3908;52.310;7.230;2024-03-06T07:19:57;51694.78;;;-145.83;92.99
7730;BME280;3908;52.310;7.230;2024-03-06T07:22:45;51686.94;;;-145.83;92.95
7730;BME280;3908;52.310;7.230;2024-03-06T07:25:33;51655.66;;;-145.83;92.09
7730;BME280;3908;52.310;7.230;2024-03-06T07:28:20;51667.38;;;-145.83;91.64
7730;BME280;3908;52.310;7.230;2024-03-06T07:31:07;51710.44;;;-145.83;91.83
7730;BME280;3908;52.310;7.230;2024-03-06T07:33:54;51679.13;;;-145.83;91.82
7730;BME280;3908;52.310;7.230;2024-03-06T07:36:42;51645.88;;;-145.83;92.77
7730;BME280;3908;52.310;7.230;2024-03-06T07:39:30;51669.34;;;-145.83;91.63
7730;BME280;3908;52.310;7.230;2024-03-06T07:42:18;51710.44;;;-145.83;90.93
7730;BME280;3908;52.310;7.230;2024-03-06T07:45:06;51728.03;;;-145.83;89.67
7730;BME280;3908;52.310;7.230;2024-03-06T07:47:54;51688.91;;;-145.83;89.76
7730;BME280;3908;52.310;7.230;2024-03-06T07:50:41;51673.25;;;-145.83;90.00
7730;BME280;3908;52.310;7.230;2024-03-06T07:53:28;51659.56;;;-145.83;90.46
7730;BME280;3908;52.310;7.230;2024-03-06T07:56:17;51686.94;;;-145.83;90.21
7730;BME280;3908;52.310;7.230;2024-03-06T07:59:04;51708.47;;;-145.83;90.06
7730;BME280;3908;52.310;7.230;2024-03-06T08:01:51;51710.44;;;-145.83;88.88
7730;BME280;3908;52.310;7.230;2024-03-06T08:04:38;51647.81;;;-145.83;89.92
7730;BME280;3908;52.310;7.230;2024-03-06T08:07:25;51679.13;;;-145.83;89.67
7730;BME280;3908;52.310;7.230;2024-03-06T08:10:13;51649.78;;;-145.83;89.24
7730;BME280;3908;52.310;7.230;2024-03-06T08:13:02;51700.66;;;-145.83;89.27
7730;BME280;3908;52.310;7.230;2024-03-06T08:15:49;51696.75;;;-145.83;89.06
7730;BME280;3908;52.310;7.230;2024-03-06T08:18:36;51679.13;;;-145.83;89.35
7730;BME280;3908;52.310;7.230;2024-03-06T08:21:24;51685.00;;;-145.83;88.79
7730;BME280;3908;52.310;7.230;2024-03-06T08:24:11;51688.91;;;-145.83;89.71
7730;BME280;3908;52.310;7.230;2024-03-06T08:26:58;51673.25;;;-145.83;89.43
7730;BME280;3908;52.310;7.230;2024-03-06T08:29:47;51669.34;;;-145.83;88.86
7730;BME280;3908;52.310;7.230;2024-03-06T08:32:34;51690.88;;;-145.83;89.36
7730;BME280;3908;52.310;7.230;2024-03-06T08:35:23;51651.75;;;-145.83;88.17
7730;BME280;3908;52.310;7.230;2024-03-06T08:38:11;51675.22;;;-145.83;87.58
7730;BME280;3908;52.310;7.230;2024-03-06T08:40:58;51698.69;;;-145.83;87.60
7730;BME280;3908;52.310;7.230;2024-03-06T08:43:45;51675.22;;;-145.83;87.35
7730;BME280;3908;52.310;7.230;2024-03-06T08:46:33;51694.78;;;-145.83;88.79
7730;BME280;3908;52.310;7.230;2024-03-06T08:49:20;51706.53;;;-145.83;88.56
7730;BME280;3908;52.310;7.230;2024-03-06T08:52:07;51692.81;;;-145.83;86.85
7730;BME280;3908;52.310;7.230;2024-03-06T08:54:55;51638.03;;;-145.83;86.63
7730;BME280;3908;52.310;7.230;2024-03-06T08:57:42;51679.13;;;-145.83;86.69
7730;BME280;3908;52.310;7.230;2024-03-06T09:00:29;51661.53;;;-145.83;86.88
7730;BME280;3908;52.310;7.230;2024-03-06T09:03:18;51702.59;;;-145.83;86.09
7730;BME280;3908;52.310;7.230;2024-03-06T09:06:05;51679.13;;;-145.83;86.15
7730;BME280;3908;52.310;7.230;2024-03-06T09:08:52;51685.00;;;-145.83;85.35
7730;BME280;3908;52.310;7.230;2024-03-06T09:11:39;51690.88;;;-145.83;85.52
7730;BME280;3908;52.310;7.230;2024-03-06T09:14:27;51690.88;;;-145.83;85.47
7730;BME280;3908;52.310;7.230;2024-03-06T09:17:14;51690.88;;;-145.83;83.09
7730;BME280;3908;52.310;7.230;2024-03-06T09:20:03;51720.22;;;-145.83;83.60
7730;BME280;3908;52.310;7.230;2024-03-06T09:22:55;51706.53;;;-145.83;81.85
7730;BME280;3908;52.310;7.230;2024-03-06T09:25:42;51679.13;;;-145.83;81.98
7730;BME280;3908;52.310;7.230;2024-03-06T09:28:29;51694.78;;;-145.83;81.05
7730;BME280;3908;52.310;7.230;2024-03-06T09:31:16;51726.09;;;-145.83;79.73
7730;BME280;3908;52.310;7.230;2024-03-06T09:34:03;51714.34;;;-145.83;79.89
7730;BME280;3908;52.310;7.230;2024-03-06T09:36:52;51718.25;;;-145.83;81.07
7730;BME280;3908;52.310;7.230;2024-03-06T09:39:39;51704.56;;;-145.83;81.40
7730;BME280;3908;52.310;7.230;2024-03-06T09:42:26;51702.59;;;-145.83;80.53
7730;BME280;3908;52.310;7.230;2024-03-06T09:45:13;51690.88;;;-145.83;81.00
7730;BME280;3908;52.310;7.230;2024-03-06T09:48:00;51733.91;;;-145.83;80.00
7730;BME280;3908;52.310;7.230;2024-03-06T09:50:49;51692.81;;;-145.83;79.35
7730;BME280;3908;52.310;7.230;2024-03-06T09:53:38;51722.16;;;-145.83;79.16
7730;BME280;3908;52.310;7.230;2024-03-06T09:56:25;51700.66;;;-145.83;80.28
7730;BME280;3908;52.310;7.230;2024-03-06T09:59:13;51665.44;;;-145.83;80.19
7730;BME280;3908;52.310;7.230;2024-03-06T10:02:01;51694.78;;;-145.83;80.68
7730;BME280;3908;52.310;7.230;2024-03-06T10:04:55;51702.59;;;-145.83;79.21
7730;BME280;3908;52.310;7.230;2024-03-06T10:07:42;51704.56;;;-145.83;79.57
7730;BME280;3908;52.310;7.230;2024-03-06T10:10:31;51661.53;;;-145.83;78.93
7730;BME280;3908;52.310;7.230;2024-03-06T10:13:18;51714.34;;;-145.83;79.78
7730;BME280;3908;52.310;7.230;2024-03-06T10:16:09;51730.00;;;-145.83;79.43
7730;BME280;3908;52.310;7.230;2024-03-06T10:18:57;51733.91;;;-145.83;79.96
7730;BME280;3908;52.310;7.230;2024-03-06T10:24:19;51704.56;;;-145.83;77.47
7730;BME280;3908;52.310;7.230;2024-03-06T10:27:14;51704.56;;;-145.83;79.73
7730;BME280;3908;52.310;7.230;2024-03-06T10:30:03;51690.88;;;-145.83;79.75
7730;BME280;3908;52.310;7.230;2024-03-06T10:32:51;51706.53;;;-145.83;78.16
7730;BME280;3908;52.310;7.230;2024-03-06T10:35:40;51700.66;;;-145.83;78.04
7730;BME280;3908;52.310;7.230;2024-03-06T10:38:30;51706.53;;;-145.83;78.77
7730;BME280;3908;52.310;7.230;2024-03-06T10:41:23;51706.53;;;-145.83;77.23
7730;BME280;3908;52.310;7.230;2024-03-06T10:44:13;51690.88;;;-145.83;77.95
7730;BME280;3908;52.310;7.230;2024-03-06T10:47:05;51690.88;;;-145.83;76.96
7730;BME280;3908;52.310;7.230;2024-03-06T10:49:59;51694.78;;;-145.83;75.53
7730;BME280;3908;52.310;7.230;2024-03-06T10:52:47;51728.03;;;-145.83;74.27
7730;BME280;3908;52.310;7.230;2024-03-06T10:55:36;51749.56;;;-145.83;74.02
7730;BME280;3908;52.310;7.230;2024-03-06T10:58:23;51708.47;;;-145.83;73.11
7730;BME280;3908;52.310;7.230;2024-03-06T11:01:13;51728.03;;;-145.83;73.65
7730;BME280;3908;52.310;7.230;2024-03-06T11:04:00;51720.22;;;-145.83;72.67
7730;BME280;3908;52.310;7.230;2024-03-06T11:06:49;51718.25;;;-145.83;71.89
7730;BME280;3908;52.310;7.230;2024-03-06T11:09:37;51726.09;;;-145.83;72.58
7730;BME280;3908;52.310;7.230;2024-03-06T11:12:35;51720.22;;;-145.83;71.21
7730;BME280;3908;52.310;7.230;2024-03-06T11:15:23;51741.75;;;-145.83;70.63
7730;BME280;3908;52.310;7.230;2024-03-06T11:18:43;51708.47;;;-145.83;71.07
7730;BME280;3908;52.310;7.230;2024-03-06T11:21:31;51708.47;;;-145.83;70.22
7730;BME280;3908;52.310;7.230;2024-03-06T11:24:20;51755.44;;;-145.83;69.23
7730;BME280;3908;52.310;7.230;2024-03-06T11:27:07;51735.88;;;-145.83;69.01
7730;BME280;3908;52.310;7.230;2024-03-06T11:30:09;51733.91;;;-145.83;69.81
7730;BME280;3908;52.310;7.230;2024-03-06T11:32:59;51696.75;;;-145.83;70.29
7730;BME280;3908;52.310;7.230;2024-03-06T11:36:19;51735.88;;;-145.83;69.15
7730;BME280;3908;52.310;7.230;2024-03-06T11:39:08;51731.94;;;-145.83;68.79
7730;BME280;3908;52.310;7.230;2024-03-06T11:41:55;51714.34;;;-145.83;70.86
7730;BME280;3908;52.310;7.230;2024-03-06T11:44:53;51741.75;;;-145.83;68.63
7730;BME280;3908;52.310;7.230;2024-03-06T11:47:56;51796.53;;;-145.83;68.39
7730;BME280;3908;52.310;7.230;2024-03-06T11:50:44;51753.47;;;-145.83;66.41
7730;BME280;3908;52.310;7.230;2024-03-06T11:53:34;51720.22;;;-145.83;64.46
7730;BME280;3908;52.310;7.230;2024-03-06T11:56:22;51759.34;;;-145.83;67.15
7730;BME280;3908;52.310;7.230;2024-03-06T11:59:09;51747.59;;;-145.83;65.02
7730;BME280;3908;52.310;7.230;2024-03-06T12:01:58;51755.44;;;-145.83;65.60
7730;BME280;3908;52.310;7.230;2024-03-06T12:04:47;51733.91;;;-145.83;65.00
7730;BME280;3908;52.310;7.230;2024-03-06T12:07:45;51743.69;;;-145.83;66.47
7730;BME280;3908;52.310;7.230;2024-03-06T12:10:36;51749.56;;;-145.83;66.71
7730;BME280;3908;52.310;7.230;2024-03-06T12:13:23;51771.09;;;-145.83;67.14
7730;BME280;3908;52.310;7.230;2024-03-06T12:16:11;51730.00;;;-145.83;68.57
7730;BME280;3908;52.310;7.230;2024-03-06T12:18:58;51761.31;;;-145.83;68.22
7730;BME280;3908;52.310;7.230;2024-03-06T12:21:47;51737.81;;;-145.83;67.14
7730;BME280;3908;52.310;7.230;2024-03-06T12:24:34;51739.78;;;-145.83;65.92
7730;BME280;3908;52.310;7.230;2024-03-06T12:27:23;51730.00;;;-145.83;65.08
7730;BME280;3908;52.310;7.230;2024-03-06T12:30:11;51735.88;;;-145.83;66.58
7730;BME280;3908;52.310;7.230;2024-03-06T12:32:59;51731.94;;;-145.83;66.50
7730;BME280;3908;52.310;7.230;2024-03-06T12:36:00;51745.66;;;-145.83;68.33
7730;BME280;3908;52.310;7.230;2024-03-06T12:38:54;51718.25;;;-145.83;65.91
7730;BME280;3908;52.310;7.230;2024-03-06T12:41:41;51714.34;;;-145.83;65.48
7730;BME280;3908;52.310;7.230;2024-03-06T12:44:30;51726.09;;;-145.83;65.77
7730;BME280;3908;52.310;7.230;2024-03-06T12:47:17;51726.09;;;-145.83;69.38
7730;BME280;3908;52.310;7.230;2024-03-06T12:50:05;51726.09;;;-145.83;65.04
7730;BME280;3908;52.310;7.230;2024-03-06T12:52:53;51755.44;;;-145.83;65.13
7730;BME280;3908;52.310;7.230;2024-03-06T12:55:40;51755.44;;;-145.83;65.83
7730;BME280;3908;52.310;7.230;2024-03-06T12:58:29;51743.69;;;-145.83;64.98
7730;BME280;3908;52.310;7.230;2024-03-06T13:01:18;51737.81;;;-145.83;63.80
7730;BME280;3908;52.310;7.230;2024-03-06T13:04:05;51753.47;;;-145.83;65.38
7730;BME280;3908;52.310;7.230;2024-03-06T13:06:53;51747.59;;;-145.83;65.23
7730;BME280;3908;52.310;7.230;2024-03-06T13:09:40;51716.31;;;-145.83;63.79
7730;BME280;3908;52.310;7.230;2024-03-06T13:12:27;51759.34;;;-145.83;64.99
7730;BME280;3908;52.310;7.230;2024-03-06T13:15:14;51741.75;;;-145.83;64.57
7730;BME280;3908;52.310;7.230;2024-03-06T13:18:04;51743.69;;;-145.83;65.95
7730;BME280;3908;52.310;7.230;2024-03-06T13:20:51;51763.25;;;-145.83;67.98
7730;BME280;3908;52.310;7.230;2024-03-06T13:23:38;51733.91;;;-145.83;66.11
7730;BME280;3908;52.310;7.230;2024-03-06T13:26:25;51739.78;;;-145.83;68.26
7730;BME280;3908;52.310;7.230;2024-03-06T13:29:12;51749.56;;;-145.83;66.55
7730;BME280;3908;52.310;7.230;2024-03-06T13:31:59;51733.91;;;-145.83;66.88
7730;BME280;3908;52.310;7.230;2024-03-06T13:34:48;51743.69;;;-145.83;64.97
7730;BME280;3908;52.310;7.230;2024-03-06T13:37:35;51716.31;;;-145.83;63.14
7730;BME280;3908;52.310;7.230;2024-03-06T13:40:22;51741.75;;;-145.83;64.19
7730;BME280;3908;52.310;7.230;2024-03-06T13:43:11;51728.03;;;-145.83;64.66
7730;BME280;3908;52.310;7.230;2024-03-06T13:45:58;51739.78;;;-145.83;65.51
7730;BME280;3908;52.310;7.230;2024-03-06T13:48:45;51728.03;;;-145.83;64.35
7730;BME280;3908;52.310;7.230;2024-03-06T13:51:34;51778.91;;;-145.83;65.58
7730;BME280;3908;52.310;7.230;2024-03-06T13:54:21;51739.78;;;-145.83;66.97
7730;BME280;3908;52.310;7.230;2024-03-06T13:57:08;51710.44;;;-145.83;63.79
7730;BME280;3908;52.310;7.230;2024-03-06T13:59:55;51728.03;;;-145.83;65.61
7730;BME280;3908;52.310;7.230;2024-03-06T14:02:43;51755.44;;;-145.83;67.60
7730;BME280;3908;52.310;7.230;2024-03-06T14:05:31;51735.88;;;-145.83;65.50
7730;BME280;3908;52.310;7.230;2024-03-06T14:08:19;51730.00;;;-145.83;67.69
7730;BME280;3908;52.310;7.230;2024-03-06T14:11:08;51775.00;;;-145.83;65.38
7730;BME280;3908;52.310;7.230;2024-03-06T14:13:55;51731.94;;;-145.83;66.24
7730;BME280;3908;52.310;7.230;2024-03-06T14:16:42;51714.34;;;-145.83;66.62
7730;BME280;3908;52.310;7.230;2024-03-06T14:19:29;51743.69;;;-145.83;67.69
7730;BME280;3908;52.310;7.230;2024-03-06T14:22:16;51735.88;;;-145.83;65.22
7730;BME280;3908;52.310;7.230;2024-03-06T14:25:05;51735.88;;;-145.83;63.95
7730;BME280;3908;52.310;7.230;2024-03-06T14:27:53;51733.91;;;-145.83;63.57
7730;BME280;3908;52.310;7.230;2024-03-06T14:30:40;51706.53;;;-145.83;66.22
7730;BME280;3908;52.310;7.230;2024-03-06T14:33:27;51730.00;;;-145.83;66.61
7730;BME280;3908;52.310;7.230;2024-03-06T14:36:14;51741.75;;;-145.83;66.83
7730;BME280;3908;52.310;7.230;2024-03-06T14:39:02;51718.25;;;-145.83;67.57
7730;BME280;3908;52.310;7.230;2024-03-06T14:41:50;51728.03;;;-145.83;68.71
7730;BME280;3908;52.310;7.230;2024-03-06T14:44:38;51728.03;;;-145.83;67.66
7730;BME280;3908;52.310;7.230;2024-03-06T14:47:25;51702.59;;;-145.83;68.65
7730;BME280;3908;52.310;7.230;2024-03-06T14:50:13;51710.44;;;-145.83;69.21
7730;BME280;3908;52.310;7.230;2024-03-06T14:53:00;51743.69;;;-145.83;69.60